Česky Dansk Deutsch English Español Suomi Français Magyar Italiano Nederlands norsk Polski Português svenska Türkçe

 

Het Weer

Hurguada (Egypt)

13:00, 21 augustus 2016 (GMT)

NWNNE
WE
SWSSE
Home            
Hurguada Sharm El Sheikhintl El Tor Luxor Asyut Taba Eilat Wejh Aqaba Airport Tabuk Ovda Asswan Ma'An Cairo Airport El Arish Beer-Sheva Port Said Jerusalem Airport Queen Alia Airport Yenbo Ben-Gurion International Airport Tel Aviv / Sde-Dov Airport Alexandria / Nouzha

Om een weerknop op uw website of weblog te plaatsen, copieer onderstaande code en plak die in uw pagina. In het eerste vakje staat HTML-code, in het tweede vakje UBB-code.


Add to Google

Details

Wind speed:2 bf, 6 kn, 3.1 m/s, 6.9 miles/h, 11.1 km/h
Wind direction:SE, 130°
Visibility:Greater than 10000 m, 10 km, 32800 ft, 6.2 miles
Clouds:CAVOC
Temperature:41°C, 106°F
Gefühlte Temperatur:42°C, 107°F
Dew-point:15°C, 59°F
Atmospheric pressure:1006 hPa, 754.6 mmHg, 29.71 inHg, 0.993 atm
Relative humidity:21.9 %
METAR:HEGN 211300Z 13006KT CAVOK 41/15 Q1006 NOSIG

Snelkoppelingen

Actuele weersinformatie van de hele wereld. Voeg locaties toe met het plus (+) symbool. Deze snelkoppelingen kunnen worden toegevoegd aan Google.

Lid van de Technetium groep

website free tracking
StatCounter NetStat W3C Validator

17-12-2017 04:46:44
astro.technetium.be money.technetium.be phote.technetium.be tafeltennistafel.technetium.be www.ligfiets.net